Time;durP1;ratioP1;P1;durP2;ratioP2;P2;SDS_P1;SDS_P2;PMS_P1;PMS_P2;Temp;Humidity;BMP_temperature;BMP_pressure;BME280_temperature;BME280_humidity;BME280_pressure;Samples;Min_cycle;Max_cycle;Signal;HPM_P1;HPM_P2
2023/03/13 06:00:24;;;;;;;0.90;0.70;;;11.90;97.20;;;;;;1714588;28;20178;-65
2023/03/13 06:01:15;;;;;;;0.85;0.70;;;11.90;97.20;;;;;;1715014;28;20204;-65
2023/03/13 06:02:07;;;;;;;1.20;0.70;;;11.90;97.20;;;;;;1715107;28;20205;-65
2023/03/13 06:02:57;;;;;;;2.05;0.80;;;11.90;97.20;;;;;;1715046;28;20675;-65
2023/03/13 06:03:49;;;;;;;1.13;0.63;;;11.90;97.20;;;;;;1714955;28;20569;-65
2023/03/13 06:04:40;;;;;;;1.00;0.70;;;11.90;97.20;;;;;;1715246;28;20710;-64
2023/03/13 06:05:32;;;;;;;1.33;0.70;;;11.90;97.20;;;;;;1715015;28;20588;-65
2023/03/13 06:06:22;;;;;;;1.20;0.70;;;11.90;97.20;;;;;;1714930;28;20205;-65
2023/03/13 06:07:14;;;;;;;1.87;1.10;;;11.90;97.20;;;;;;1716040;28;20194;-65
2023/03/13 06:08:06;;;;;;;1.25;0.80;;;11.90;97.20;;;;;;1715080;28;20205;-65
2023/03/13 06:08:57;;;;;;;1.42;0.70;;;12.00;97.20;;;;;;1714919;28;20202;-65
2023/03/13 06:09:48;;;;;;;1.23;0.70;;;12.00;97.20;;;;;;1714952;28;20627;-64
2023/03/13 06:10:40;;;;;;;2.30;0.90;;;12.00;97.20;;;;;;1714913;28;20221;-66
2023/03/13 06:11:30;;;;;;;0.80;0.60;;;12.00;97.20;;;;;;1714949;28;20233;-65
2023/03/13 06:12:22;;;;;;;1.77;0.77;;;12.00;97.20;;;;;;1715031;28;20206;-66
2023/03/13 06:13:13;;;;;;;0.90;0.70;;;12.00;97.20;;;;;;1714753;28;20209;-66
2023/03/13 06:14:04;;;;;;;1.10;0.80;;;12.00;97.20;;;;;;1716011;28;20209;-65
2023/03/13 06:14:55;;;;;;;1.20;0.77;;;12.00;97.20;;;;;;1717172;28;20240;-65
2023/03/13 06:15:53;;;;;;;1.13;0.60;;;12.10;97.20;;;;;;1721556;28;20199;-65
2023/03/13 06:16:44;;;;;;;1.48;0.68;;;12.10;97.20;;;;;;1719642;28;20232;-65
2023/03/13 06:17:36;;;;;;;1.75;0.80;;;12.10;97.20;;;;;;1714915;28;20547;-64
2023/03/13 06:18:26;;;;;;;1.02;0.60;;;12.10;97.20;;;;;;1714873;28;20205;-65
2023/03/13 06:19:18;;;;;;;1.20;0.80;;;12.10;97.20;;;;;;1714938;28;20248;-66
2023/03/13 06:20:10;;;;;;;2.25;0.80;;;12.10;97.20;;;;;;1714949;28;20406;-65
2023/03/13 06:21:02;;;;;;;1.00;0.60;;;12.10;97.20;;;;;;1718773;28;20196;-65
2023/03/13 06:21:53;;;;;;;3.35;1.00;;;12.10;97.20;;;;;;1721630;28;20236;-64
2023/03/13 06:22:45;;;;;;;0.97;0.60;;;12.20;97.20;;;;;;1721400;28;20209;-65
2023/03/13 06:23:36;;;;;;;1.00;0.70;;;12.20;97.20;;;;;;1721587;28;20209;-65
2023/03/13 06:24:28;;;;;;;1.03;0.70;;;12.20;97.20;;;;;;1721536;28;20201;-65
2023/03/13 06:25:19;;;;;;;1.05;0.80;;;12.20;97.20;;;;;;1721539;28;20241;-65
2023/03/13 06:26:10;;;;;;;1.20;0.80;;;12.20;97.20;;;;;;1721669;28;20241;-65
2023/03/13 06:27:02;;;;;;;0.93;0.70;;;12.20;97.20;;;;;;1721735;28;20197;-65
2023/03/13 06:27:52;;;;;;;1.13;0.90;;;12.20;97.20;;;;;;1721568;28;20201;-65
2023/03/13 06:28:44;;;;;;;0.90;0.80;;;12.30;97.20;;;;;;1721531;28;20201;-64
2023/03/13 06:29:35;;;;;;;1.30;0.75;;;12.30;97.20;;;;;;1718583;28;20444;-65
2023/03/13 06:30:27;;;;;;;1.27;0.97;;;12.30;97.20;;;;;;1716029;28;20280;-65
2023/03/13 06:31:19;;;;;;;2.42;1.00;;;12.30;97.20;;;;;;1714860;28;20201;-65
2023/03/13 06:32:10;;;;;;;1.98;1.27;;;12.30;97.20;;;;;;1714772;28;20614;-65
2023/03/13 06:33:01;;;;;;;1.40;0.85;;;12.30;97.20;;;;;;1714682;28;20210;-66
2023/03/13 06:33:53;;;;;;;1.80;0.90;;;12.30;97.20;;;;;;1714759;28;20239;-65
2023/03/13 06:34:44;;;;;;;2.20;0.95;;;12.30;97.20;;;;;;1714784;28;20216;-71
2023/03/13 06:35:36;;;;;;;1.80;1.10;;;12.30;97.20;;;;;;1715770;28;20200;-65
2023/03/13 06:36:26;;;;;;;0.90;0.70;;;12.40;97.20;;;;;;1714765;28;20694;-65
2023/03/13 06:37:18;;;;;;;1.10;0.53;;;12.40;97.20;;;;;;1715824;28;20569;-65
2023/03/13 06:38:09;;;;;;;2.17;0.80;;;12.40;97.20;;;;;;1714845;28;20201;-65
2023/03/13 06:39:01;;;;;;;1.20;0.60;;;12.40;97.20;;;;;;1714762;28;20198;-65
2023/03/13 06:39:52;;;;;;;2.67;0.80;;;12.40;97.20;;;;;;1716138;28;20256;-65
2023/03/13 06:40:44;;;;;;;1.00;0.53;;;12.50;97.20;;;;;;1721401;28;20217;-64
2023/03/13 06:41:35;;;;;;;1.10;0.82;;;12.50;97.20;;;;;;1721468;28;20209;-65
2023/03/13 06:42:27;;;;;;;1.35;0.75;;;12.50;97.20;;;;;;1721521;28;20201;-64
2023/03/13 06:43:17;;;;;;;2.38;0.85;;;12.50;97.20;;;;;;1721236;28;20233;-64
2023/03/13 06:44:09;;;;;;;1.10;0.60;;;12.50;97.20;;;;;;1721694;28;20201;-64
2023/03/13 06:45:02;;;;;;;1.02;0.60;;;12.50;97.20;;;;;;1721453;28;20212;-64
2023/03/13 06:45:53;;;;;;;3.38;0.85;;;12.50;97.20;;;;;;1721434;28;20227;-68
2023/03/13 06:46:45;;;;;;;1.15;0.73;;;12.50;97.20;;;;;;1721366;28;20229;-65
2023/03/13 06:47:37;;;;;;;1.30;0.68;;;12.50;97.20;;;;;;1721493;28;20220;-69
2023/03/13 06:48:28;;;;;;;1.00;0.70;;;12.50;97.20;;;;;;1721291;28;20212;-65
2023/03/13 06:49:20;;;;;;;1.63;0.90;;;12.50;97.20;;;;;;1721538;28;20207;-65
2023/03/13 06:50:10;;;;;;;1.38;0.70;;;12.50;97.20;;;;;;1717078;28;20198;-65
2023/03/13 06:51:02;;;;;;;1.57;0.70;;;12.50;97.20;;;;;;1714791;28;20562;-65
2023/03/13 06:51:55;;;;;;;1.02;0.60;;;12.50;97.20;;;;;;1714781;28;20201;-65
2023/03/13 06:52:47;;;;;;;1.10;0.60;;;12.50;97.20;;;;;;1714436;28;20733;-65
2023/03/13 06:53:38;;;;;;;0.93;0.60;;;12.50;97.20;;;;;;1714849;28;20205;-65
2023/03/13 06:54:30;;;;;;;1.10;0.60;;;12.50;97.20;;;;;;1714656;28;20200;-65
2023/03/13 06:55:21;;;;;;;0.85;0.60;;;12.50;97.20;;;;;;1722016;28;20813;-67
2023/03/13 06:56:13;;;;;;;1.00;0.60;;;12.50;97.20;;;;;;1724931;28;20638;-65
2023/03/13 06:57:03;;;;;;;1.73;0.70;;;12.50;97.20;;;;;;1721376;28;20285;-64
2023/03/13 06:57:55;;;;;;;1.67;0.70;;;12.50;97.20;;;;;;1721461;28;20200;-64
2023/03/13 06:58:46;;;;;;;1.10;0.80;;;12.50;97.20;;;;;;1721320;28;20667;-65
2023/03/13 06:59:38;;;;;;;0.88;0.68;;;12.50;97.20;;;;;;1721427;28;20228;-64
2023/03/13 07:00:29;;;;;;;1.10;0.70;;;12.50;97.20;;;;;;1718075;28;20247;-64
2023/03/13 07:01:21;;;;;;;0.90;0.80;;;12.50;97.20;;;;;;1714561;28;20252;-64
2023/03/13 07:02:14;;;;;;;1.08;0.70;;;12.50;97.20;;;;;;1714627;28;20204;-65
2023/03/13 07:03:06;;;;;;;1.13;0.80;;;12.50;97.20;;;;;;1714327;28;20225;-65
2023/03/13 07:03:57;;;;;;;0.70;0.60;;;12.50;97.20;;;;;;1714719;28;20237;-65
2023/03/13 07:04:48;;;;;;;1.00;0.70;;;12.50;97.20;;;;;;1714557;28;20209;-64
2023/03/13 07:05:39;;;;;;;1.15;0.60;;;12.50;97.20;;;;;;1714686;28;20661;-66
2023/03/13 07:06:31;;;;;;;1.10;0.70;;;12.50;97.20;;;;;;1714027;28;20601;-64
2023/03/13 07:07:21;;;;;;;0.70;0.65;;;12.50;97.20;;;;;;1714707;28;20209;-65
2023/03/13 07:08:13;;;;;;;3.03;0.77;;;12.50;97.20;;;;;;1714673;28;20208;-64
2023/03/13 07:09:04;;;;;;;1.00;0.70;;;12.50;97.20;;;;;;1714583;28;20210;-64
2023/03/13 07:09:55;;;;;;;6.07;0.50;;;12.50;97.20;;;;;;1715835;28;20206;-64
2023/03/13 07:10:49;;;;;;;0.95;0.68;;;12.50;97.20;;;;;;1721317;28;20671;-64
2023/03/13 07:11:41;;;;;;;0.70;0.52;;;12.50;97.20;;;;;;1721280;28;20197;-64
2023/03/13 07:12:33;;;;;;;1.10;0.80;;;12.50;97.20;;;;;;1721317;28;20687;-65
2023/03/13 07:13:25;;;;;;;1.35;0.63;;;12.50;97.20;;;;;;1719374;28;20193;-64
2023/03/13 07:14:16;;;;;;;0.98;0.68;;;12.50;97.20;;;;;;1714765;28;20198;-65
2023/03/13 07:15:08;;;;;;;1.10;0.70;;;12.50;97.20;;;;;;1714242;28;20230;-65
2023/03/13 07:15:59;;;;;;;1.20;0.70;;;12.60;97.20;;;;;;1714528;28;20264;-67
2023/03/13 07:16:51;;;;;;;1.10;0.80;;;12.50;97.20;;;;;;1715360;28;20255;-68
2023/03/13 07:17:43;;;;;;;1.00;0.60;;;12.50;97.20;;;;;;1720155;28;20440;-67
2023/03/13 07:18:35;;;;;;;1.88;0.70;;;12.60;97.20;;;;;;1719182;28;20263;-67
2023/03/13 07:19:26;;;;;;;1.33;0.80;;;12.60;97.20;;;;;;1714548;28;20212;-68
2023/03/13 07:20:18;;;;;;;1.23;0.73;;;12.60;97.20;;;;;;1714488;28;20202;-66
2023/03/13 07:21:09;;;;;;;0.95;0.85;;;12.60;97.20;;;;;;1714499;28;20955;-67
2023/03/13 07:22:01;;;;;;;1.02;0.70;;;12.60;97.20;;;;;;1714567;28;20241;-66
2023/03/13 07:22:52;;;;;;;1.33;0.80;;;12.60;97.20;;;;;;1717960;28;20588;-67
2023/03/13 07:23:44;;;;;;;0.80;0.50;;;12.60;97.20;;;;;;1721210;28;20288;-66
2023/03/13 07:24:34;;;;;;;1.45;0.73;;;12.60;97.20;;;;;;1721117;28;20204;-67
2023/03/13 07:25:26;;;;;;;1.47;0.67;;;12.60;97.20;;;;;;1721187;28;20193;-66
2023/03/13 07:26:17;;;;;;;0.90;0.73;;;12.60;97.20;;;;;;1720874;28;20204;-65
2023/03/13 07:27:08;;;;;;;1.17;0.60;;;12.60;97.20;;;;;;1721181;28;20681;-66
2023/03/13 07:28:00;;;;;;;1.27;0.80;;;12.70;97.20;;;;;;1721208;28;20205;-65
2023/03/13 07:28:51;;;;;;;2.15;1.17;;;12.70;97.20;;;;;;1721156;28;20287;-65
2023/03/13 07:29:42;;;;;;;0.95;0.70;;;12.70;97.20;;;;;;1721137;28;20232;-65
2023/03/13 07:30:34;;;;;;;0.80;0.60;;;12.80;97.20;;;;;;1720940;28;20237;-65
2023/03/13 07:31:25;;;;;;;1.10;0.80;;;12.80;97.20;;;;;;1718393;28;20443;-65
2023/03/13 07:32:17;;;;;;;0.90;0.70;;;12.80;97.20;;;;;;1717971;28;20212;-65
2023/03/13 07:33:09;;;;;;;0.82;0.65;;;12.90;97.20;;;;;;1720861;28;20448;-66
2023/03/13 07:34:01;;;;;;;0.95;0.63;;;12.90;97.20;;;;;;1721165;28;20296;-65
2023/03/13 07:34:52;;;;;;;1.05;0.60;;;12.90;97.20;;;;;;1720318;28;20201;-65
2023/03/13 07:35:49;;;;;;;1.77;0.80;;;12.90;97.20;;;;;;1720275;28;20199;-65
2023/03/13 07:36:41;;;;;;;0.90;0.70;;;12.90;97.20;;;;;;1720713;28;20202;-65
2023/03/13 07:37:31;;;;;;;0.80;0.50;;;12.90;97.20;;;;;;1720350;28;20249;-65
2023/03/13 07:38:23;;;;;;;1.20;0.73;;;12.90;97.20;;;;;;1720732;28;20201;-67
2023/03/13 07:39:14;;;;;;;1.00;0.70;;;12.90;97.20;;;;;;1720396;28;20473;-65
2023/03/13 07:40:08;;;;;;;1.00;0.60;;;12.90;97.20;;;;;;1720458;28;20207;-65
2023/03/13 07:40:58;;;;;;;0.90;0.60;;;12.90;97.20;;;;;;1720707;28;20632;-66
2023/03/13 07:41:50;;;;;;;1.10;0.80;;;12.90;97.20;;;;;;1720368;28;20599;-65
2023/03/13 07:42:41;;;;;;;1.77;0.82;;;12.90;97.20;;;;;;1720119;28;20471;-66
2023/03/13 07:43:33;;;;;;;1.90;0.80;;;12.90;97.20;;;;;;1720357;28;20201;-65
2023/03/13 07:44:24;;;;;;;0.90;0.70;;;12.90;97.20;;;;;;1720749;28;20953;-65
2023/03/13 07:45:15;;;;;;;0.80;0.60;;;12.90;97.20;;;;;;1720009;28;20539;-66
2023/03/13 07:46:08;;;;;;;1.08;0.80;;;13.00;97.20;;;;;;1719181;28;20197;-66
2023/03/13 07:47:00;;;;;;;1.00;0.70;;;13.00;97.20;;;;;;1721074;28;20209;-65
2023/03/13 07:47:51;;;;;;;2.17;0.80;;;13.00;97.20;;;;;;1721148;28;20241;-65
2023/03/13 07:48:44;;;;;;;0.80;0.70;;;13.00;97.20;;;;;;1721021;28;20226;-66
2023/03/13 07:49:40;;;;;;;0.80;0.70;;;13.00;97.20;;;;;;1720691;28;20210;-66
2023/03/13 07:50:31;;;;;;;1.27;0.70;;;13.10;97.20;;;;;;1721018;28;20218;-66
2023/03/13 07:51:24;;;;;;;0.93;0.60;;;13.10;97.20;;;;;;1721250;28;20224;-66
2023/03/13 07:52:16;;;;;;;2.05;0.90;;;13.10;97.20;;;;;;1721160;28;20205;-66
2023/03/13 07:53:07;;;;;;;0.90;0.77;;;13.10;97.20;;;;;;1720772;28;20208;-65
2023/03/13 07:53:59;;;;;;;1.40;0.80;;;13.10;97.20;;;;;;1721041;28;20288;-65
2023/03/13 07:54:49;;;;;;;1.00;0.70;;;13.10;97.20;;;;;;1721016;28;20205;-68
2023/03/13 07:55:41;;;;;;;1.27;0.77;;;13.20;97.20;;;;;;1717633;28;20194;-65
2023/03/13 07:56:32;;;;;;;1.20;0.73;;;13.20;97.20;;;;;;1715941;28;20256;-65
2023/03/13 07:57:24;;;;;;;1.00;0.70;;;13.20;97.20;;;;;;1721151;28;20221;-66
2023/03/13 07:58:14;;;;;;;1.67;1.58;;;13.30;97.20;;;;;;1721088;28;20687;-68
2023/03/13 07:59:06;;;;;;;2.47;1.60;;;13.30;97.20;;;;;;1720631;28;20685;-68
2023/03/13 07:59:57;;;;;;;1.35;1.17;;;13.30;97.20;;;;;;1720969;28;20200;-67
2023/03/13 08:00:48;;;;;;;1.40;1.10;;;13.30;97.20;;;;;;1714790;28;20228;-66
2023/03/13 08:01:40;;;;;;;1.65;1.20;;;13.40;97.20;;;;;;1714315;28;20217;-66
2023/03/13 08:02:32;;;;;;;0.98;0.88;;;13.40;97.20;;;;;;1714214;28;20651;-66
2023/03/13 08:03:25;;;;;;;1.88;1.25;;;13.40;97.20;;;;;;1714087;28;20261;-66
2023/03/13 08:04:18;;;;;;;2.55;1.00;;;13.50;97.20;;;;;;1714285;28;20579;-66
2023/03/13 08:05:09;;;;;;;0.95;0.85;;;13.50;97.20;;;;;;1714273;28;20217;-67
2023/03/13 08:06:02;;;;;;;1.30;1.00;;;13.50;97.20;;;;;;1715270;28;20201;-66
2023/03/13 08:06:53;;;;;;;1.55;1.17;;;13.50;97.20;;;;;;1714255;28;20584;-66
2023/03/13 08:07:45;;;;;;;1.50;0.80;;;13.50;97.20;;;;;;1714315;28;20220;-66
2023/03/13 08:08:37;;;;;;;2.00;0.80;;;13.50;97.20;;;;;;1714162;28;20202;-66
2023/03/13 08:09:31;;;;;;;1.85;0.90;;;13.50;97.20;;;;;;1714234;28;20594;-67
2023/03/13 08:10:23;;;;;;;2.08;0.90;;;13.60;97.20;;;;;;1714204;28;20201;-66
2023/03/13 08:11:16;;;;;;;1.40;0.80;;;13.60;97.20;;;;;;1714186;28;20213;-67
2023/03/13 08:12:08;;;;;;;3.28;1.00;;;13.60;97.20;;;;;;1714279;28;20214;-66
2023/03/13 08:12:59;;;;;;;1.58;0.80;;;13.70;97.20;;;;;;1713971;28;20578;-66
2023/03/13 08:13:51;;;;;;;1.00;0.70;;;13.70;97.20;;;;;;1714174;28;20202;-66
2023/03/13 08:14:42;;;;;;;1.00;0.70;;;13.80;97.20;;;;;;1714176;28;20202;-66
2023/03/13 08:15:33;;;;;;;1.70;0.75;;;13.80;97.20;;;;;;1715031;28;20698;-67
2023/03/13 08:16:27;;;;;;;1.50;0.77;;;13.80;97.20;;;;;;1720881;28;20597;-67
2023/03/13 08:17:18;;;;;;;0.70;0.60;;;13.90;97.20;;;;;;1720928;28;20209;-66
2023/03/13 08:18:10;;;;;;;1.37;0.80;;;13.90;97.20;;;;;;1720963;28;20216;-65
2023/03/13 08:19:03;;;;;;;1.15;0.93;;;14.00;97.20;;;;;;1720790;28;20236;-66
2023/03/13 08:19:56;;;;;;;1.65;0.98;;;14.10;97.20;;;;;;1720978;28;20197;-67
2023/03/13 08:20:47;;;;;;;1.10;1.00;;;14.10;97.20;;;;;;1720727;28;20233;-68
2023/03/13 08:21:39;;;;;;;1.00;0.80;;;14.20;97.20;;;;;;1720862;28;20201;-66
2023/03/13 08:22:29;;;;;;;1.73;0.70;;;14.20;97.20;;;;;;1720887;28;20608;-66
2023/03/13 08:23:21;;;;;;;1.63;1.00;;;14.30;97.20;;;;;;1720643;28;20207;-66
2023/03/13 08:24:12;;;;;;;1.10;0.80;;;14.40;97.20;;;;;;1720801;28;20212;-66
2023/03/13 08:25:04;;;;;;;1.60;0.90;;;14.40;97.20;;;;;;1720713;28;20204;-66
2023/03/13 08:25:55;;;;;;;0.85;0.70;;;14.50;97.20;;;;;;1716632;28;20209;-66
2023/03/13 08:26:46;;;;;;;0.90;0.70;;;14.50;97.20;;;;;;1714195;28;20281;-67
2023/03/13 08:27:37;;;;;;;0.80;0.70;;;14.60;97.20;;;;;;1714201;28;20205;-65
2023/03/13 08:28:29;;;;;;;3.10;1.40;;;14.60;97.20;;;;;;1714178;28;20205;-66
2023/03/13 08:29:20;;;;;;;1.70;1.13;;;14.60;97.20;;;;;;1714183;28;20209;-68
2023/03/13 08:30:12;;;;;;;1.60;1.38;;;14.60;97.20;;;;;;1713980;28;20663;-66
2023/03/13 08:31:09;;;;;;;2.58;1.65;;;14.70;97.20;;;;;;1714117;28;20213;-66
2023/03/13 08:32:00;;;;;;;1.95;1.30;;;14.70;97.20;;;;;;1714131;28;20679;-66
2023/03/13 08:32:51;;;;;;;2.10;1.80;;;14.70;97.20;;;;;;1713781;28;20241;-66
2023/03/13 08:33:44;;;;;;;2.40;2.20;;;14.70;97.20;;;;;;1714180;28;20202;-69
2023/03/13 08:34:35;;;;;;;3.35;2.45;;;14.70;97.20;;;;;;1714053;28;20206;-67
2023/03/13 08:35:30;;;;;;;3.35;3.05;;;14.80;97.20;;;;;;1714049;28;20212;-67
2023/03/13 08:36:23;;;;;;;4.25;2.85;;;14.80;97.20;;;;;;1714158;28;20209;-67
2023/03/13 08:37:15;;;;;;;1.83;1.65;;;14.80;97.20;;;;;;1717038;28;20601;-66
2023/03/13 08:38:07;;;;;;;1.58;1.15;;;14.80;97.20;;;;;;1720789;28;20236;-66
2023/03/13 08:39:00;;;;;;;3.70;1.15;;;14.80;97.20;;;;;;1715080;28;20570;-66
2023/03/13 08:39:53;;;;;;;1.38;1.20;;;14.80;97.20;;;;;;1714035;28;20687;-66
2023/03/13 08:40:44;;;;;;;1.92;1.40;;;14.80;97.20;;;;;;1713987;28;20226;-66
2023/03/13 08:41:39;;;;;;;1.20;0.93;;;14.80;97.20;;;;;;1714122;28;20283;-67
2023/03/13 08:42:30;;;;;;;1.00;0.90;;;14.70;97.20;;;;;;1715295;28;20742;-66
2023/03/13 08:43:21;;;;;;;1.00;0.80;;;14.70;97.20;;;;;;1720527;28;20730;-66
2023/03/13 08:44:14;;;;;;;1.20;0.80;;;14.70;97.20;;;;;;1717668;28;21233;-67
2023/03/13 08:45:07;;;;;;;1.73;0.90;;;14.70;97.20;;;;;;1720626;28;20209;-67
2023/03/13 08:45:58;;;;;;;1.15;0.93;;;14.70;97.20;;;;;;1717701;28;20251;-67
2023/03/13 08:46:51;;;;;;;1.10;0.80;;;14.70;97.20;;;;;;1716472;28;20252;-66
2023/03/13 08:47:41;;;;;;;1.00;0.82;;;14.60;97.20;;;;;;1717950;28;20212;-67
2023/03/13 08:48:33;;;;;;;1.70;0.93;;;14.60;97.20;;;;;;1716660;28;20707;-69
2023/03/13 08:49:24;;;;;;;1.58;0.95;;;14.60;97.20;;;;;;1720796;28;20212;-66
2023/03/13 08:50:16;;;;;;;1.03;0.93;;;14.60;97.20;;;;;;1716650;28;20202;-67
2023/03/13 08:51:10;;;;;;;2.35;0.90;;;14.60;97.20;;;;;;1716424;28;20211;-67
2023/03/13 08:52:04;;;;;;;0.93;0.82;;;14.60;97.20;;;;;;1719531;28;20213;-70
2023/03/13 08:52:55;;;;;;;1.45;1.05;;;14.60;97.20;;;;;;1719999;28;20209;-66
2023/03/13 08:53:47;;;;;;;0.80;0.70;;;14.60;97.20;;;;;;1720620;28;20209;-66
2023/03/13 08:54:38;;;;;;;2.45;0.95;;;14.60;97.20;;;;;;1716866;28;20456;-67
2023/03/13 08:55:29;;;;;;;1.57;1.07;;;14.60;97.20;;;;;;1718758;28;20197;-67
2023/03/13 08:56:22;;;;;;;2.47;0.82;;;14.60;97.20;;;;;;1720385;28;20220;-67
2023/03/13 08:57:14;;;;;;;1.45;0.70;;;14.60;97.20;;;;;;1720358;28;20197;-66
2023/03/13 08:58:05;;;;;;;1.00;0.80;;;14.60;97.20;;;;;;1720443;28;20695;-67
2023/03/13 08:58:58;;;;;;;1.93;1.17;;;14.60;97.20;;;;;;1720080;28;20589;-66
2023/03/13 08:59:50;;;;;;;1.25;0.80;;;14.60;97.20;;;;;;1720455;28;20255;-67
2023/03/13 09:00:42;;;;;;;1.75;0.80;;;14.60;97.20;;;;;;1719867;28;20252;-67
2023/03/13 09:01:34;;;;;;;1.00;0.80;;;14.60;97.20;;;;;;1726228;28;20659;-66
2023/03/13 09:02:26;;;;;;;3.40;0.90;;;14.60;97.20;;;;;;1727336;28;20229;-67
2023/03/13 09:03:17;;;;;;;1.45;0.80;;;14.60;97.20;;;;;;1726683;28;20258;-67
2023/03/13 09:04:09;;;;;;;1.30;0.80;;;14.60;97.20;;;;;;1727125;28;20247;-66
2023/03/13 09:05:00;;;;;;;2.00;0.85;;;14.60;97.20;;;;;;1724672;28;20442;-67
2023/03/13 09:05:51;;;;;;;1.00;0.80;;;14.60;97.20;;;;;;1720357;28;20209;-67
2023/03/13 09:06:45;;;;;;;2.53;1.10;;;14.70;97.20;;;;;;1720520;28;20232;-66
2023/03/13 09:07:35;;;;;;;1.00;0.90;;;14.70;97.20;;;;;;1720426;28;20575;-66
2023/03/13 09:08:28;;;;;;;1.87;1.10;;;14.70;97.20;;;;;;1720413;28;20647;-66
2023/03/13 09:09:19;;;;;;;1.80;0.98;;;14.70;97.20;;;;;;1720434;28;20875;-67
2023/03/13 09:10:11;;;;;;;1.50;1.00;;;14.70;97.20;;;;;;1720472;28;20200;-67
2023/03/13 09:11:04;;;;;;;0.90;0.70;;;14.80;97.20;;;;;;1719842;28;20667;-67
2023/03/13 09:11:55;;;;;;;2.10;1.05;;;14.80;97.20;;;;;;1720039;28;20211;-66
2023/03/13 09:12:47;;;;;;;1.17;0.75;;;14.80;97.20;;;;;;1719854;28;20217;-66
2023/03/13 09:13:41;;;;;;;1.17;0.70;;;14.80;97.20;;;;;;1725323;28;20199;-67
2023/03/13 09:14:32;;;;;;;0.93;0.80;;;14.90;97.20;;;;;;1725687;28;20216;-67
2023/03/13 09:15:23;;;;;;;1.40;1.05;;;14.90;97.20;;;;;;1720357;28;20736;-67
2023/03/13 09:16:16;;;;;;;1.87;1.00;;;14.90;97.20;;;;;;1720343;28;20717;-66
2023/03/13 09:17:08;;;;;;;2.17;0.90;;;15.00;97.20;;;;;;1720359;28;20213;-68
2023/03/13 09:17:59;;;;;;;1.50;1.00;;;15.00;97.20;;;;;;1720436;28;20636;-66
2023/03/13 09:18:51;;;;;;;1.20;0.90;;;15.00;97.20;;;;;;1720166;28;20547;-66
2023/03/13 09:19:43;;;;;;;1.15;0.82;;;15.10;97.20;;;;;;1720458;28;20201;-67
2023/03/13 09:20:35;;;;;;;1.80;0.88;;;15.10;97.20;;;;;;1719754;28;20225;-66
2023/03/13 09:21:27;;;;;;;1.27;1.00;;;15.10;97.20;;;;;;1720498;28;20212;-67
2023/03/13 09:22:20;;;;;;;2.10;1.00;;;15.10;97.20;;;;;;1720407;28;20192;-67
2023/03/13 09:23:11;;;;;;;1.20;1.00;;;15.10;97.20;;;;;;1719866;28;20686;-66
2023/03/13 09:24:03;;;;;;;1.23;0.90;;;15.10;97.20;;;;;;1719042;28;20788;-67
2023/03/13 09:24:54;;;;;;;1.70;0.93;;;15.20;97.20;;;;;;1716220;28;20213;-66
2023/03/13 09:25:46;;;;;;;1.10;0.87;;;15.20;97.20;;;;;;1717748;28;20210;-66
2023/03/13 09:26:36;;;;;;;1.73;0.98;;;15.10;97.20;;;;;;1717084;28;20235;-67
2023/03/13 09:27:28;;;;;;;2.33;1.10;;;15.20;97.20;;;;;;1716297;28;20201;-67
2023/03/13 09:28:19;;;;;;;1.92;0.90;;;15.20;97.20;;;;;;1713687;28;20225;-66
2023/03/13 09:29:14;;;;;;;1.38;0.73;;;15.30;97.20;;;;;;1712820;28;20264;-67
2023/03/13 09:30:06;;;;;;;1.17;0.90;;;15.30;97.20;;;;;;1714272;28;20213;-66
2023/03/13 09:31:06;;;;;;;2.75;0.93;;;15.40;97.20;;;;;;1714522;28;20237;-66
2023/03/13 09:31:57;;;;;;;6.05;1.13;;;15.50;97.20;;;;;;1715012;28;20213;-65
2023/03/13 09:32:49;;;;;;;0.87;0.77;;;15.60;97.20;;;;;;1714555;28;20293;-66
2023/03/13 09:33:41;;;;;;;1.30;1.00;;;15.70;97.20;;;;;;1714917;28;20209;-67
2023/03/13 09:34:32;;;;;;;1.63;1.10;;;15.70;97.20;;;;;;1715042;28;20740;-66
2023/03/13 09:35:23;;;;;;;2.10;0.95;;;15.80;97.20;;;;;;1715091;28;20688;-66
2023/03/13 09:36:15;;;;;;;1.20;0.80;;;15.90;97.20;;;;;;1715075;28;20656;-67
2023/03/13 09:37:07;;;;;;;2.28;1.10;;;16.00;97.20;;;;;;1715061;28;20206;-67
2023/03/13 09:38:00;;;;;;;1.40;0.90;;;16.00;97.20;;;;;;1714913;28;20584;-67
2023/03/13 09:38:53;;;;;;;1.52;1.10;;;16.10;97.20;;;;;;1714762;28;20209;-67
2023/03/13 09:39:44;;;;;;;1.70;0.70;;;16.20;97.20;;;;;;1714996;28;20248;-67
2023/03/13 09:40:40;;;;;;;1.93;1.00;;;16.20;97.20;;;;;;1716407;28;20225;-66
2023/03/13 09:41:35;;;;;;;1.58;1.00;;;16.20;97.20;;;;;;1721711;28;20561;-67
2023/03/13 09:42:35;;;;;;;1.75;1.00;;;16.30;97.20;;;;;;1721637;28;20210;-67
2023/03/13 09:43:38;;;;;;;1.83;1.02;;;16.30;97.20;;;;;;1721657;28;20216;-67
2023/03/13 09:44:37;;;;;;;2.30;0.75;;;16.30;97.20;;;;;;1721677;28;20209;-66
2023/03/13 09:45:32;;;;;;;2.30;1.05;;;16.30;97.20;;;;;;1721645;28;20209;-68
2023/03/13 09:46:31;;;;;;;1.65;0.90;;;16.30;97.20;;;;;;1721107;28;20620;-67
2023/03/13 09:47:24;;;;;;;1.67;0.90;;;16.40;97.20;;;;;;1721154;28;20208;-69
2023/03/13 09:48:28;;;;;;;1.70;0.90;;;16.50;97.20;;;;;;1721629;28;20273;-67
2023/03/13 09:49:29;;;;;;;1.23;1.08;;;16.60;97.20;;;;;;1720998;28;20216;-67
2023/03/13 09:50:26;;;;;;;1.20;1.00;;;16.70;97.20;;;;;;1727746;28;20229;-66
2023/03/13 09:51:20;;;;;;;1.85;0.90;;;16.80;97.20;;;;;;1714514;28;20224;-67
2023/03/13 09:52:17;;;;;;;2.33;1.40;;;17.00;97.20;;;;;;1714844;28;20289;-67
2023/03/13 09:53:14;;;;;;;1.40;0.90;;;17.30;97.20;;;;;;1714322;28;20206;-66
2023/03/13 09:54:09;;;;;;;1.92;1.17;;;18.20;97.20;;;;;;1714869;28;20285;-67
2023/03/13 09:55:04;;;;;;;2.03;0.98;;;19.50;97.20;;;;;;1714172;28;20217;-67
2023/03/13 09:55:55;;;;;;;1.48;0.90;;;20.80;97.20;;;;;;1714410;28;20202;-67
2023/03/13 09:56:53;;;;;;;2.30;1.30;;;22.00;97.20;;;;;;1714901;28;20206;-67
2023/03/13 09:57:48;;;;;;;1.50;0.98;;;23.00;97.20;;;;;;1714879;28;20213;-67
2023/03/13 09:58:48;;;;;;;1.95;1.15;;;23.80;97.20;;;;;;1714604;28;20257;-68
2023/03/13 09:59:47;;;;;;;1.40;1.20;;;23.80;97.20;;;;;;1714903;28;20206;-67
2023/03/13 10:00:39;;;;;;;1.48;1.10;;;23.90;97.20;;;;;;1716152;28;20232;-67
2023/03/13 10:01:34;;;;;;;1.80;1.20;;;23.70;97.20;;;;;;1721519;28;20577;-66
2023/03/13 10:02:28;;;;;;;1.40;1.15;;;23.40;97.20;;;;;;1721607;28;20604;-67
2023/03/13 10:03:25;;;;;;;1.85;1.20;;;23.20;97.20;;;;;;1720668;28;20201;-67
2023/03/13 10:04:29;;;;;;;2.08;1.15;;;23.50;97.20;;;;;;1721576;28;20216;-67
2023/03/13 10:05:23;;;;;;;2.22;1.10;;;24.30;97.20;;;;;;1721572;28;20198;-67
2023/03/13 10:06:18;;;;;;;1.88;0.95;;;25.30;97.20;;;;;;1721573;28;20212;-67
2023/03/13 10:07:11;;;;;;;1.10;0.90;;;26.40;97.20;;;;;;1721472;28;20545;-68
2023/03/13 10:08:11;;;;;;;2.20;1.05;;;27.30;97.20;;;;;;1721541;28;20583;-66
2023/03/13 10:09:15;;;;;;;1.50;1.13;;;28.20;97.20;;;;;;1721291;28;20241;-67
2023/03/13 10:10:14;;;;;;;1.40;1.10;;;28.80;97.20;;;;;;1721461;28;20213;-67
2023/03/13 10:11:09;;;;;;;1.80;1.20;;;29.50;97.20;;;;;;1716286;28;20202;-67
2023/03/13 10:12:11;;;;;;;1.60;1.17;;;30.20;97.20;;;;;;1714739;28;20899;-67
2023/03/13 10:13:11;;;;;;;2.15;1.15;;;30.90;97.20;;;;;;1714196;28;20205;-67
2023/03/13 10:14:11;;;;;;;1.48;1.10;;;31.60;97.20;;;;;;1714855;28;20206;-68
2023/03/13 10:15:21;;;;;;;1.20;1.08;;;32.30;97.20;;;;;;1714646;28;20241;-71
2023/03/13 10:16:17;;;;;;;3.65;1.20;;;33.00;95.40;;;;;;1714731;28;20238;-67
2023/03/13 10:17:18;;;;;;;1.90;1.23;;;33.40;93.80;;;;;;1714858;28;20201;-67
2023/03/13 10:18:18;;;;;;;2.00;1.50;;;33.70;92.90;;;;;;1714648;28;20237;-68
2023/03/13 10:19:13;;;;;;;2.45;1.08;;;34.10;91.90;;;;;;1714631;28;20240;-67
2023/03/13 10:20:21;;;;;;;2.60;1.10;;;34.20;89.80;;;;;;1714838;28;20659;-71
2023/03/13 10:21:15;;;;;;;2.25;1.10;;;34.30;89.00;;;;;;1720148;28;20212;-68
2023/03/13 10:22:13;;;;;;;2.22;1.15;;;34.40;88.70;;;;;;1721422;28;20193;-67
2023/03/13 10:23:11;;;;;;;1.60;1.40;;;34.50;88.00;;;;;;1719731;28;20216;-67
2023/03/13 10:24:10;;;;;;;1.70;1.10;;;34.50;87.20;;;;;;1721491;28;20216;-67
2023/03/13 10:25:07;;;;;;;1.95;1.67;;;34.60;87.80;;;;;;1721414;28;20205;-66
2023/03/13 10:25:57;;;;;;;2.08;1.25;;;34.80;87.40;;;;;;1721408;28;20212;-68
2023/03/13 10:26:49;;;;;;;1.73;1.30;;;34.90;86.70;;;;;;1721473;28;20235;-67
2023/03/13 10:27:44;;;;;;;2.40;1.42;;;35.10;86.20;;;;;;1721337;28;20240;-68
2023/03/13 10:28:36;;;;;;;1.60;1.20;;;35.40;85.60;;;;;;1720700;28;20611;-67
2023/03/13 10:29:29;;;;;;;2.83;1.15;;;35.50;85.30;;;;;;1721253;28;20205;-67
2023/03/13 10:30:24;;;;;;;2.05;1.20;;;35.60;83.90;;;;;;1721109;28;20208;-68
2023/03/13 10:31:22;;;;;;;2.25;1.30;;;35.60;83.30;;;;;;1720987;28;20674;-67
2023/03/13 10:32:16;;;;;;;2.45;1.10;;;35.80;83.60;;;;;;1721351;28;20216;-67
2023/03/13 10:33:20;;;;;;;4.53;1.30;;;36.10;83.30;;;;;;1720797;28;20667;-67
2023/03/13 10:34:12;;;;;;;2.85;1.00;;;36.70;82.60;;;;;;1721402;28;20233;-68
2023/03/13 10:35:06;;;;;;;2.20;1.27;;;37.00;81.40;;;;;;1721244;28;20228;-67